Time;durP1;ratioP1;P1;durP2;ratioP2;P2;SDS_P1;SDS_P2;PMS_P1;PMS_P2;Temp;Humidity;BMP_temperature;BMP_pressure;BME280_temperature;BME280_humidity;BME280_pressure;Samples;Min_cycle;Max_cycle;Signal;HPM_P1;HPM_P2
2023/06/25 00:01:32;;;;;;;9.85;8.95;;;18.60;99.90;;;;;;4995095;28;20054;-87
2023/06/25 00:04:01;;;;;;;1.20;1.20;;;18.60;99.90;;;;;;5005565;28;20064;-86
2023/06/25 00:06:27;;;;;;;1.20;1.20;;;18.60;99.90;;;;;;4995267;28;20070;-87
2023/06/25 00:08:52;;;;;;;1.30;1.30;;;18.60;99.90;;;;;;5003431;28;20088;-86
2023/06/25 00:11:18;;;;;;;1.30;1.30;;;18.60;99.90;;;;;;4989479;28;20107;-87
2023/06/25 00:13:43;;;;;;;1.10;1.10;;;18.60;99.90;;;;;;4994340;28;20128;-85
2023/06/25 00:16:09;;;;;;;1.20;1.20;;;18.50;99.90;;;;;;4999784;28;20049;-85
2023/06/25 00:18:35;;;;;;;1.20;1.20;;;18.50;99.90;;;;;;5012613;28;20132;-85
2023/06/25 00:21:01;;;;;;;1.20;1.20;;;18.50;99.90;;;;;;5000562;28;20056;-86
2023/06/25 00:23:27;;;;;;;1.00;1.00;;;18.50;99.90;;;;;;4999136;28;20128;-86
2023/06/25 00:25:53;;;;;;;1.00;1.00;;;18.30;99.90;;;;;;5000124;28;20374;-86
2023/06/25 00:28:18;;;;;;;1.20;1.20;;;18.30;99.90;;;;;;4997316;28;20038;-86
2023/06/25 00:30:44;;;;;;;1.20;1.20;;;18.40;99.90;;;;;;4996864;28;20102;-87
2023/06/25 00:33:10;;;;;;;1.10;1.10;;;18.40;99.90;;;;;;4997828;28;20068;-86
2023/06/25 00:36:06;;;;;;;1.50;1.40;;;18.30;99.90;;;;;;5001798;28;20137;-87
2023/06/25 00:38:42;;;;;;;1.38;1.38;;;18.40;99.90;;;;;;4989840;28;20086;-86
2023/06/25 00:41:11;;;;;;;1.30;1.30;;;18.40;99.90;;;;;;5004486;28;20048;-86
2023/06/25 00:43:52;;;;;;;1.30;1.30;;;18.30;99.90;;;;;;4990681;28;20080;-87
2023/06/25 00:46:17;;;;;;;1.27;1.27;;;18.20;99.90;;;;;;4992700;28;20045;-86
2023/06/25 00:48:47;;;;;;;1.27;1.27;;;18.20;99.90;;;;;;4992922;28;20513;-86
2023/06/25 00:51:17;;;;;;;1.20;1.20;;;18.20;99.90;;;;;;5001682;28;20085;-86
2023/06/25 00:53:43;;;;;;;1.45;1.38;;;18.30;99.90;;;;;;4999451;28;20061;-86
2023/06/25 00:56:11;;;;;;;1.20;1.20;;;18.20;99.90;;;;;;4990655;28;20053;-85
2023/06/25 00:58:38;;;;;;;1.30;1.30;;;18.20;99.90;;;;;;4989979;28;20051;-85
2023/06/25 01:01:11;;;;;;;0.90;0.90;;;18.20;99.90;;;;;;4986914;28;20123;-86
2023/06/25 01:03:42;;;;;;;0.90;0.90;;;18.10;99.90;;;;;;5004749;28;20049;-86
2023/06/25 01:06:19;;;;;;;0.90;0.90;;;18.10;99.90;;;;;;4999080;28;20034;-86
2023/06/25 01:08:50;;;;;;;0.88;0.88;;;18.10;99.90;;;;;;4999706;28;20560;-85
2023/06/25 01:11:17;;;;;;;0.90;0.90;;;18.10;99.90;;;;;;4999010;28;20056;-85
2023/06/25 01:13:43;;;;;;;0.80;0.80;;;18.10;99.90;;;;;;5000598;28;20141;-86
2023/06/25 01:16:09;;;;;;;0.75;0.75;;;18.00;99.90;;;;;;5006858;28;20049;-86
2023/06/25 01:18:39;;;;;;;0.80;0.80;;;18.10;99.90;;;;;;5006884;28;20113;-86
2023/06/25 01:21:05;;;;;;;0.80;0.80;;;18.10;99.90;;;;;;4987554;28;20049;-86
2023/06/25 01:23:32;;;;;;;0.80;0.80;;;18.00;99.90;;;;;;5002854;28;20454;-86
2023/06/25 01:25:57;;;;;;;0.80;0.80;;;18.00;99.90;;;;;;4997609;28;20037;-86
2023/06/25 01:28:23;;;;;;;0.90;0.90;;;17.90;99.90;;;;;;4999716;28;20128;-84
2023/06/25 01:30:52;;;;;;;0.80;0.80;;;18.00;99.90;;;;;;4995111;28;20171;-84
2023/06/25 01:33:21;;;;;;;0.85;0.85;;;17.90;99.90;;;;;;4997785;28;20041;-85
2023/06/25 01:35:47;;;;;;;0.80;0.80;;;17.90;99.90;;;;;;5008094;28;20058;-86
2023/06/25 01:38:14;;;;;;;0.80;0.80;;;17.80;99.90;;;;;;4997622;28;20050;-86
2023/06/25 01:40:40;;;;;;;0.80;0.80;;;17.90;99.90;;;;;;4988144;28;20060;-86
2023/06/25 01:43:06;;;;;;;0.80;0.80;;;17.80;99.90;;;;;;5004041;28;20076;-85
2023/06/25 01:45:31;;;;;;;0.80;0.80;;;17.70;99.90;;;;;;5003860;28;20172;-85
2023/06/25 01:47:58;;;;;;;0.82;0.82;;;17.80;99.90;;;;;;5006915;28;20119;-85
2023/06/25 01:50:24;;;;;;;1.00;1.00;;;17.80;99.90;;;;;;5000851;28;20049;-86
2023/06/25 01:52:49;;;;;;;0.95;0.95;;;17.70;99.90;;;;;;5004240;28;20095;-85
2023/06/25 01:55:15;;;;;;;1.00;1.00;;;17.80;99.90;;;;;;5006015;28;20072;-85
2023/06/25 01:57:41;;;;;;;1.00;1.00;;;17.80;99.90;;;;;;5007376;28;20053;-85
2023/06/25 02:00:09;;;;;;;1.00;1.00;;;17.80;99.90;;;;;;5001492;28;20056;-84
2023/06/25 02:02:35;;;;;;;1.00;1.00;;;17.70;99.90;;;;;;5005075;28;20058;-85
2023/06/25 02:05:00;;;;;;;1.02;1.02;;;17.80;99.90;;;;;;5007396;28;20041;-84
2023/06/25 02:07:26;;;;;;;1.00;1.00;;;17.70;99.90;;;;;;5005093;28;20037;-85
2023/06/25 02:09:52;;;;;;;1.10;1.10;;;17.70;99.90;;;;;;4998519;28;20086;-86
2023/06/25 02:12:17;;;;;;;1.05;1.05;;;17.70;99.90;;;;;;4998389;28;20045;-86
2023/06/25 02:14:43;;;;;;;1.10;1.10;;;17.60;99.90;;;;;;5001106;28;20045;-85
2023/06/25 02:17:08;;;;;;;1.70;1.60;;;17.70;99.90;;;;;;4991340;28;20048;-86
2023/06/25 02:19:34;;;;;;;1.10;1.10;;;17.70;99.90;;;;;;4988680;28;20045;-86
2023/06/25 02:22:00;;;;;;;1.17;1.17;;;17.90;99.90;;;;;;5006484;28;20041;-85
2023/06/25 02:24:26;;;;;;;1.17;1.17;;;17.80;99.90;;;;;;4991975;28;20124;-86
2023/06/25 02:26:52;;;;;;;1.27;1.27;;;17.80;99.90;;;;;;5005506;28;20041;-85
2023/06/25 02:29:17;;;;;;;1.17;1.17;;;17.80;99.90;;;;;;4993898;28;20057;-86
2023/06/25 02:31:43;;;;;;;1.10;1.10;;;17.90;99.90;;;;;;4995681;28;20132;-86
2023/06/25 02:34:09;;;;;;;1.20;1.20;;;17.70;99.90;;;;;;4999800;28;20132;-85
2023/06/25 02:36:35;;;;;;;1.20;1.20;;;17.80;99.90;;;;;;4985940;28;20038;-86
2023/06/25 02:39:00;;;;;;;1.10;1.10;;;17.60;99.90;;;;;;4989817;28;20045;-85
2023/06/25 02:41:26;;;;;;;1.10;1.10;;;17.70;99.90;;;;;;5005802;28;20052;-86
2023/06/25 02:43:52;;;;;;;1.20;1.20;;;17.70;99.90;;;;;;5003443;28;20499;-86
2023/06/25 02:46:17;;;;;;;0.98;0.98;;;17.70;99.90;;;;;;5002186;28;20047;-85
2023/06/25 02:48:43;;;;;;;1.00;1.00;;;17.60;99.90;;;;;;4989721;28;20057;-86
2023/06/25 02:51:10;;;;;;;1.00;1.00;;;17.60;99.90;;;;;;4999419;28;20518;-85
2023/06/25 02:53:38;;;;;;;1.08;1.08;;;17.60;99.90;;;;;;4999584;28;20133;-86
2023/06/25 02:56:04;;;;;;;1.02;1.02;;;17.60;99.90;;;;;;5001064;28;20534;-86
2023/06/25 02:58:30;;;;;;;1.10;1.10;;;17.50;99.90;;;;;;4987532;28;20564;-86
2023/06/25 03:00:55;;;;;;;1.10;1.10;;;17.50;99.90;;;;;;4998641;28;20072;-86
2023/06/25 03:03:21;;;;;;;1.15;1.15;;;17.60;99.90;;;;;;4993858;28;20048;-86
2023/06/25 03:05:47;;;;;;;1.25;1.25;;;17.50;99.90;;;;;;4989326;28;20068;-85
2023/06/25 03:08:12;;;;;;;1.25;1.25;;;17.50;99.90;;;;;;5004375;28;20049;-85
2023/06/25 03:10:38;;;;;;;1.50;1.40;;;17.40;99.90;;;;;;5004469;28;20196;-86
2023/06/25 03:13:05;;;;;;;1.42;1.40;;;17.40;99.90;;;;;;5006525;28;20049;-87
2023/06/25 03:15:31;;;;;;;1.45;1.40;;;17.40;99.90;;;;;;5001324;28;20049;-86
2023/06/25 03:17:56;;;;;;;1.50;1.40;;;17.40;99.90;;;;;;4986408;28;20092;-87
2023/06/25 03:20:22;;;;;;;1.50;1.40;;;17.40;99.90;;;;;;4985670;28;20750;-87
2023/06/25 03:22:48;;;;;;;1.38;1.35;;;17.30;99.90;;;;;;5003078;28;20045;-86
2023/06/25 03:25:14;;;;;;;1.33;1.33;;;17.30;99.90;;;;;;4994111;28;20092;-86
2023/06/25 03:27:40;;;;;;;1.50;1.40;;;17.20;99.90;;;;;;4990917;28;20117;-85
2023/06/25 03:30:06;;;;;;;1.60;1.50;;;17.30;99.90;;;;;;5015292;28;20111;-87
2023/06/25 03:32:33;;;;;;;1.60;1.50;;;17.30;99.90;;;;;;4986256;28;20124;-88
2023/06/25 03:34:59;;;;;;;1.77;1.67;;;17.20;99.90;;;;;;4999583;28;20050;-87
2023/06/25 03:37:25;;;;;;;1.70;1.60;;;17.30;99.90;;;;;;4983922;28;20658;-85
2023/06/25 03:39:51;;;;;;;1.60;1.50;;;17.30;99.90;;;;;;4995549;28;20049;-86
2023/06/25 03:42:17;;;;;;;1.92;1.83;;;17.30;99.90;;;;;;5000001;28;20080;-87
2023/06/25 03:44:50;;;;;;;2.10;2.00;;;17.30;99.90;;;;;;4998474;28;20092;-86
2023/06/25 03:47:15;;;;;;;2.00;1.90;;;17.30;99.90;;;;;;5006349;28;20054;-87
2023/06/25 03:49:43;;;;;;;2.00;1.90;;;17.30;99.90;;;;;;5004431;28;20461;-86
2023/06/25 03:52:08;;;;;;;2.08;1.98;;;17.40;99.90;;;;;;5000409;28;20403;-86
2023/06/25 03:54:34;;;;;;;2.10;2.00;;;17.40;99.90;;;;;;4994798;28;20052;-87
2023/06/25 03:57:00;;;;;;;2.00;1.90;;;17.40;99.90;;;;;;4991732;28;20487;-86
2023/06/25 03:59:25;;;;;;;2.00;1.90;;;17.30;99.90;;;;;;4979978;28;20049;-85
2023/06/25 04:01:51;;;;;;;2.00;1.90;;;17.30;99.90;;;;;;4984841;28;20095;-86
2023/06/25 04:04:16;;;;;;;1.90;1.80;;;17.40;99.90;;;;;;4994766;28;20053;-86
2023/06/25 04:06:42;;;;;;;1.98;1.88;;;17.30;99.90;;;;;;4994296;28;20056;-88
2023/06/25 04:09:08;;;;;;;1.80;1.70;;;17.30;99.90;;;;;;4982077;28;20045;-87
2023/06/25 04:11:33;;;;;;;1.90;1.80;;;17.40;99.90;;;;;;4986993;28;20473;-87
2023/06/25 04:13:59;;;;;;;1.77;1.67;;;17.50;99.90;;;;;;4998314;28;20059;-86
2023/06/25 04:16:25;;;;;;;1.73;1.63;;;17.50;99.90;;;;;;5005153;28;20052;-86
2023/06/25 04:18:51;;;;;;;1.70;1.60;;;17.50;99.90;;;;;;5003568;28;20049;-86
2023/06/25 04:21:17;;;;;;;1.63;1.52;;;17.60;99.90;;;;;;4996344;28;20046;-87
2023/06/25 04:23:42;;;;;;;1.70;1.60;;;17.60;99.90;;;;;;4999976;28;20041;-87
2023/06/25 04:26:08;;;;;;;1.67;1.58;;;17.60;99.90;;;;;;4980198;28;20042;-86
2023/06/25 04:28:33;;;;;;;1.60;1.50;;;17.60;99.90;;;;;;4987015;28;20045;-86
2023/06/25 04:30:59;;;;;;;1.70;1.60;;;17.60;99.90;;;;;;5024394;28;20128;-85
2023/06/25 04:33:25;;;;;;;1.77;1.67;;;17.70;99.90;;;;;;5003456;28;20129;-86
2023/06/25 04:35:50;;;;;;;1.80;1.70;;;17.70;99.90;;;;;;4984213;28;20076;-86
2023/06/25 04:38:16;;;;;;;1.63;1.52;;;17.70;99.90;;;;;;4998474;28;20045;-87
2023/06/25 04:40:42;;;;;;;1.77;1.67;;;17.80;99.90;;;;;;5000961;28;20736;-88
2023/06/25 04:43:07;;;;;;;2.30;2.20;;;18.00;99.90;;;;;;4999502;28;20088;-86
2023/06/25 04:45:33;;;;;;;2.40;2.30;;;18.90;99.90;;;;;;5003342;28;20049;-86
2023/06/25 04:47:59;;;;;;;2.20;2.10;;;20.00;99.90;;;;;;5010593;28;20126;-86
2023/06/25 04:50:24;;;;;;;1.80;1.70;;;20.10;99.90;;;;;;5007708;28;21894;-87
2023/06/25 04:52:52;;;;;;;1.80;1.70;;;21.70;99.90;;;;;;5009478;28;20049;-86
2023/06/25 04:55:18;;;;;;;1.70;1.60;;;23.10;99.90;;;;;;5003481;28;20117;-90
2023/06/25 04:57:44;;;;;;;1.60;1.50;;;23.80;99.90;;;;;;4980530;28;20133;-87
2023/06/25 05:00:10;;;;;;;1.30;1.30;;;24.00;99.90;;;;;;4984797;28;20114;-87
2023/06/25 05:02:36;;;;;;;1.25;1.25;;;25.30;99.90;;;;;;5002178;28;20049;-86
2023/06/25 05:05:01;;;;;;;1.00;1.00;;;24.80;99.90;;;;;;5007074;28;20115;-91
2023/06/25 05:07:27;;;;;;;1.00;1.00;;;24.30;99.90;;;;;;5003284;28;20097;-87
2023/06/25 05:09:53;;;;;;;1.42;1.33;;;25.20;99.90;;;;;;4990134;28;20053;-88
2023/06/25 05:12:18;;;;;;;0.80;0.80;;;25.00;99.90;;;;;;4992507;28;20045;-88
2023/06/25 05:14:44;;;;;;;0.80;0.80;;;24.70;99.90;;;;;;5009286;28;20099;-86
2023/06/25 05:17:09;;;;;;;0.90;0.90;;;24.80;99.90;;;;;;4998767;28;20038;-87
2023/06/25 05:19:35;;;;;;;0.80;0.80;;;26.00;99.90;;;;;;5001183;28;20089;-87
2023/06/25 05:22:01;;;;;;;0.68;0.68;;;26.40;99.90;;;;;;5002359;28;20057;-88
2023/06/25 05:24:26;;;;;;;0.80;0.80;;;26.20;99.90;;;;;;5006553;28;20053;-86
2023/06/25 05:26:52;;;;;;;0.57;0.57;;;26.90;99.90;;;;;;5008942;28;20048;-89
2023/06/25 05:29:18;;;;;;;1.00;1.00;;;25.20;99.90;;;;;;5001592;28;20048;-88
2023/06/25 05:31:43;;;;;;;1.38;1.27;;;25.20;99.90;;;;;;5006973;28;20041;-90
2023/06/25 05:34:09;;;;;;;1.10;1.10;;;26.10;99.90;;;;;;5004207;28;20048;-87
2023/06/25 05:36:35;;;;;;;1.20;1.20;;;25.70;99.90;;;;;;4983025;28;20045;-88
2023/06/25 05:39:00;;;;;;;29.88;5.65;;;26.90;99.90;;;;;;4992344;28;20483;-87
2023/06/25 05:41:26;;;;;;;1.45;1.38;;;25.60;99.90;;;;;;5008501;28;20053;-90
2023/06/25 05:43:52;;;;;;;1.58;1.48;;;27.10;99.90;;;;;;5007934;28;20041;-88
2023/06/25 05:46:17;;;;;;;1.30;1.30;;;27.70;99.90;;;;;;5004826;28;20133;-89
2023/06/25 05:48:44;;;;;;;1.42;1.38;;;25.90;99.90;;;;;;4997801;28;20049;-88
2023/06/25 05:51:10;;;;;;;1.27;1.27;;;24.40;99.90;;;;;;4993316;28;20100;-88
2023/06/25 05:53:42;;;;;;;1.95;1.85;;;23.00;99.90;;;;;;5006285;28;20041;-88
2023/06/25 05:56:08;;;;;;;1.40;1.35;;;23.90;99.90;;;;;;5008606;28;20042;-87
2023/06/25 05:58:35;;;;;;;1.27;1.27;;;23.60;99.90;;;;;;4999248;28;20049;-87
2023/06/25 06:01:01;;;;;;;1.55;1.45;;;23.50;99.90;;;;;;5006680;28;20425;-89
2023/06/25 06:03:26;;;;;;;1.40;1.35;;;23.70;99.90;;;;;;4999563;28;20049;-87
2023/06/25 06:05:54;;;;;;;1.13;1.13;;;24.70;99.90;;;;;;5002499;28;20064;-90
2023/06/25 06:08:20;;;;;;;0.90;0.90;;;23.70;99.90;;;;;;4991824;28;20508;-91
2023/06/25 06:10:46;;;;;;;0.77;0.77;;;23.30;99.90;;;;;;4988620;28;20076;-89
2023/06/25 06:13:12;;;;;;;0.90;0.90;;;22.80;99.90;;;;;;5004567;28;20056;-88
2023/06/25 06:15:37;;;;;;;0.80;0.80;;;22.90;99.90;;;;;;5000722;28;20377;-89
2023/06/25 06:18:03;;;;;;;0.88;0.88;;;22.50;99.90;;;;;;5007362;28;20048;-89
2023/06/25 06:20:29;;;;;;;1.17;1.17;;;22.60;99.90;;;;;;5004145;28;20053;-89
2023/06/25 06:22:57;;;;;;;1.25;1.25;;;22.70;99.90;;;;;;5007343;28;20625;-89
2023/06/25 06:25:23;;;;;;;1.40;1.35;;;22.80;99.90;;;;;;4983059;28;20060;-90
2023/06/25 06:27:49;;;;;;;0.88;0.88;;;23.20;99.90;;;;;;4992871;28;20132;-87
2023/06/25 06:30:15;;;;;;;1.40;1.35;;;22.80;99.90;;;;;;5008715;28;20164;-88
2023/06/25 06:32:40;;;;;;;1.63;1.55;;;23.40;99.90;;;;;;5006000;28;20050;-89
2023/06/25 06:35:06;;;;;;;1.17;1.17;;;24.20;99.90;;;;;;5004916;28;20054;-89
2023/06/25 06:37:32;;;;;;;1.00;1.00;;;24.60;99.90;;;;;;5000491;28;20052;-88
2023/06/25 06:39:58;;;;;;;0.95;0.95;;;25.10;99.90;;;;;;4997564;28;20120;-89
2023/06/25 06:42:23;;;;;;;0.80;0.80;;;24.80;99.90;;;;;;4998725;28;20137;-87
2023/06/25 06:44:49;;;;;;;0.80;0.80;;;25.10;99.90;;;;;;5008264;28;20049;-88
2023/06/25 06:47:15;;;;;;;0.90;0.90;;;24.50;99.90;;;;;;4981903;28;20130;-90
2023/06/25 06:49:41;;;;;;;0.85;0.85;;;23.90;99.90;;;;;;4992642;28;20084;-92
2023/06/25 06:52:07;;;;;;;0.95;0.95;;;24.50;99.90;;;;;;5007074;28;20539;-90
2023/06/25 06:54:32;;;;;;;0.70;0.70;;;25.00;99.90;;;;;;4998261;28;20604;-87
2023/06/25 06:56:58;;;;;;;0.43;0.43;;;25.10;99.90;;;;;;5004651;28;20041;-89
2023/06/25 06:59:24;;;;;;;0.80;0.80;;;25.40;99.90;;;;;;5000398;28;20052;-90
2023/06/25 07:01:49;;;;;;;0.32;0.32;;;25.80;99.90;;;;;;5009517;28;20514;-89
2023/06/25 07:04:15;;;;;;;0.30;0.30;;;24.80;99.90;;;;;;5003314;28;20050;-89
2023/06/25 07:06:41;;;;;;;0.52;0.52;;;24.90;99.90;;;;;;4979354;28;20045;-88
2023/06/25 07:09:06;;;;;;;0.68;0.68;;;26.20;99.90;;;;;;5009434;28;20049;-89
2023/06/25 07:11:32;;;;;;;0.30;0.30;;;26.70;99.90;;;;;;4990997;28;20458;-88
2023/06/25 07:13:58;;;;;;;0.30;0.30;;;27.30;99.90;;;;;;4995384;28;20080;-88
2023/06/25 07:16:24;;;;;;;0.60;0.60;;;27.80;99.90;;;;;;5002083;28;20096;-88
2023/06/25 07:18:49;;;;;;;0.80;0.35;;;27.50;99.90;;;;;;4982167;28;20484;-88
2023/06/25 07:21:15;;;;;;;0.25;0.25;;;27.50;99.90;;;;;;5006309;28;20055;-88
2023/06/25 07:23:41;;;;;;;0.30;0.30;;;27.90;99.90;;;;;;4997764;28;20407;-85
2023/06/25 07:26:06;;;;;;;0.20;0.20;;;27.90;99.90;;;;;;4992911;28;20045;-87
2023/06/25 07:28:34;;;;;;;0.30;0.30;;;27.70;99.90;;;;;;5000021;28;20760;-87
2023/06/25 07:31:00;;;;;;;0.30;0.30;;;28.00;99.90;;;;;;4990362;28;20045;-88
2023/06/25 07:33:28;;;;;;;0.30;0.30;;;27.70;99.90;;;;;;5005057;28;20045;-88
2023/06/25 07:35:53;;;;;;;0.20;0.20;;;28.60;99.90;;;;;;5004788;28;20034;-89
2023/06/25 07:38:19;;;;;;;0.30;0.30;;;26.70;99.90;;;;;;5001643;28;20084;-89
2023/06/25 07:40:45;;;;;;;0.30;0.30;;;26.40;99.90;;;;;;4982909;28;20056;-88
2023/06/25 07:43:11;;;;;;;0.40;0.40;;;26.00;99.90;;;;;;5003086;28;20422;-90
2023/06/25 07:45:38;;;;;;;0.30;0.30;;;27.10;99.90;;;;;;4989998;28;20038;-88
2023/06/25 07:48:04;;;;;;;0.38;0.38;;;27.20;99.90;;;;;;5000961;28;20511;-91
2023/06/25 07:50:30;;;;;;;0.30;0.30;;;27.50;99.90;;;;;;4999515;28;20054;-91
2023/06/25 07:52:55;;;;;;;0.30;0.30;;;26.90;99.90;;;;;;5007932;28;20069;-89
2023/06/25 07:55:22;;;;;;;0.30;0.30;;;27.00;99.90;;;;;;4987323;28;20132;-87
2023/06/25 07:57:48;;;;;;;0.32;0.32;;;27.80;99.90;;;;;;5019217;28;20045;-87
2023/06/25 08:00:15;;;;;;;0.32;0.32;;;28.20;99.90;;;;;;4991749;28;20685;-88
2023/06/25 08:02:40;;;;;;;0.30;0.30;;;28.10;99.90;;;;;;4995573;28;20045;-92
2023/06/25 08:05:06;;;;;;;0.60;0.40;;;27.80;99.90;;;;;;4994182;28;20128;-88
2023/06/25 08:07:32;;;;;;;0.30;0.30;;;27.70;99.90;;;;;;4998422;28;20045;-88
2023/06/25 08:09:58;;;;;;;0.20;0.20;;;28.30;99.90;;;;;;4994453;28;20408;-87
2023/06/25 08:12:23;;;;;;;0.20;0.20;;;28.60;99.90;;;;;;5001027;28;20050;-88
2023/06/25 08:14:49;;;;;;;0.30;0.30;;;29.20;99.90;;;;;;5004383;28;20049;-89
2023/06/25 08:17:15;;;;;;;0.22;0.22;;;29.10;99.90;;;;;;4994198;28;20061;-89
2023/06/25 08:19:40;;;;;;;0.25;0.25;;;29.40;99.90;;;;;;4999503;28;20132;-88
2023/06/25 08:22:06;;;;;;;0.20;0.20;;;29.50;99.90;;;;;;4998306;28;20146;-87
2023/06/25 08:24:32;;;;;;;0.30;0.30;;;29.10;99.90;;;;;;4999525;28;20096;-88
2023/06/25 08:26:58;;;;;;;0.20;0.20;;;28.40;99.90;;;;;;4995578;28;20099;-87
2023/06/25 08:29:23;;;;;;;0.30;0.30;;;28.30;99.90;;;;;;5003759;28;20056;-91
2023/06/25 08:31:49;;;;;;;0.20;0.20;;;28.60;99.90;;;;;;4985476;28;20478;-90
2023/06/25 08:34:15;;;;;;;0.30;0.30;;;29.20;99.90;;;;;;4990781;28;20254;-93
2023/06/25 08:36:40;;;;;;;0.30;0.30;;;28.80;99.90;;;;;;5007005;28;20049;-90
2023/06/25 08:39:19;;;;;;;0.20;0.20;;;28.60;99.90;;;;;;4982224;28;20050;-91
2023/06/25 08:41:45;;;;;;;0.20;0.20;;;28.50;99.90;;;;;;5005659;28;20046;-89
2023/06/25 08:44:10;;;;;;;0.30;0.30;;;28.40;99.90;;;;;;4996839;28;21675;-91
2023/06/25 08:46:37;;;;;;;0.28;0.28;;;29.40;99.90;;;;;;4991399;28;20541;-91
2023/06/25 08:49:05;;;;;;;0.25;0.25;;;29.40;99.90;;;;;;4988373;28;20073;-89
2023/06/25 08:51:31;;;;;;;0.30;0.30;;;28.90;99.90;;;;;;5008549;28;20809;-92
2023/06/25 08:53:57;;;;;;;0.30;0.30;;;29.00;99.90;;;;;;5004323;28;20576;-92
2023/06/25 08:56:23;;;;;;;0.30;0.30;;;29.40;99.90;;;;;;5008100;28;20076;-93
2023/06/25 08:58:50;;;;;;;0.20;0.20;;;30.10;99.90;;;;;;5007367;28;20049;-90
2023/06/25 09:01:16;;;;;;;0.30;0.30;;;30.20;98.70;;;;;;4990923;28;20641;-90
2023/06/25 09:03:42;;;;;;;0.30;0.30;;;30.10;97.80;;;;;;4990191;28;20053;-90
2023/06/25 09:06:15;;;;;;;0.28;0.28;;;30.30;96.50;;;;;;5008128;28;20065;-92
2023/06/25 09:08:42;;;;;;;0.30;0.30;;;30.40;99.20;;;;;;5007705;28;20072;-91
2023/06/25 09:11:09;;;;;;;0.25;0.25;;;30.50;98.80;;;;;;5006221;28;20056;-92
2023/06/25 09:13:36;;;;;;;0.20;0.20;;;30.60;98.20;;;;;;5002603;28;20038;-89
2023/06/25 09:16:04;;;;;;;0.32;0.32;;;30.50;98.10;;;;;;5000980;28;20100;-93
2023/06/25 09:18:30;;;;;;;0.30;0.30;;;29.40;97.30;;;;;;4990558;28;20073;-90
2023/06/25 09:21:00;;;;;;;0.20;0.20;;;29.30;97.30;;;;;;5008647;28;20054;-89
2023/06/25 09:23:25;;;;;;;0.30;0.30;;;29.20;99.90;;;;;;4999737;28;20054;-92
2023/06/25 09:25:52;;;;;;;0.30;0.30;;;29.50;99.90;;;;;;4993733;28;20049;-91
2023/06/25 09:28:19;;;;;;;0.40;0.40;;;28.90;96.80;;;;;;4998425;28;20105;-92
2023/06/25 09:30:48;;;;;;;0.30;0.30;;;29.40;96.70;;;;;;5005878;28;20099;-94
2023/06/25 09:33:15;;;;;;;0.20;0.20;;;29.70;97.40;;;;;;4997458;28;20062;-89
2023/06/25 09:35:41;;;;;;;0.30;0.30;;;30.20;96.00;;;;;;4990324;28;20045;-89
2023/06/25 09:38:07;;;;;;;0.30;0.30;;;29.50;95.10;;;;;;4991271;28;20042;-88
2023/06/25 09:40:32;;;;;;;0.30;0.30;;;30.00;96.70;;;;;;4987936;28;20132;-92
2023/06/25 09:42:59;;;;;;;0.30;0.30;;;30.20;98.30;;;;;;4998248;28;20766;-92
2023/06/25 09:45:27;;;;;;;0.30;0.30;;;30.00;94.20;;;;;;4986133;28;20101;-89
2023/06/25 09:47:55;;;;;;;0.22;0.22;;;30.70;97.80;;;;;;4997426;28;20052;-85
2023/06/25 09:50:38;;;;;;;0.20;0.20;;;31.20;97.10;;;;;;4995970;28;20420;-86
2023/06/25 09:53:16;;;;;;;0.28;0.28;;;31.40;96.50;;;;;;4999134;28;20100;-92
2023/06/25 09:55:42;;;;;;;0.30;0.30;;;31.70;95.90;;;;;;5008654;28;20057;-90
2023/06/25 09:58:09;;;;;;;0.20;0.20;;;31.10;96.70;;;;;;5001245;28;20042;-83
2023/06/25 10:00:38;;;;;;;0.20;0.20;;;31.70;96.80;;;;;;5001563;28;20053;-86
2023/06/25 10:03:07;;;;;;;0.22;0.22;;;31.80;95.70;;;;;;4981374;28;20057;-91
2023/06/25 10:05:33;;;;;;;0.20;0.20;;;31.70;97.20;;;;;;5006051;28;20043;-87
2023/06/25 10:07:59;;;;;;;0.20;0.20;;;31.60;94.90;;;;;;5006419;28;20094;-90
2023/06/25 10:10:29;;;;;;;0.30;0.30;;;31.60;95.60;;;;;;5009214;28;20132;-89
2023/06/25 10:12:55;;;;;;;0.20;0.20;;;31.60;93.00;;;;;;5005289;28;20049;-87
2023/06/25 10:15:31;;;;;;;0.22;0.22;;;31.80;96.10;;;;;;4983545;28;20060;-87
2023/06/25 10:18:01;;;;;;;0.20;0.20;;;32.20;94.20;;;;;;5008336;28;20049;-89
2023/06/25 10:20:33;;;;;;;0.20;0.20;;;31.80;94.00;;;;;;4999682;28;20064;-87
2023/06/25 10:23:12;;;;;;;0.20;0.20;;;31.30;94.00;;;;;;5004761;28;20048;-86
2023/06/25 10:25:40;;;;;;;0.20;0.20;;;31.60;94.50;;;;;;5005147;28;20111;-89
2023/06/25 10:28:07;;;;;;;0.20;0.20;;;31.60;94.00;;;;;;4999289;28;20672;-89
2023/06/25 10:30:48;;;;;;;0.30;0.30;;;30.60;87.40;;;;;;4989187;28;20047;-87
2023/06/25 10:33:15;;;;;;;0.28;0.28;;;31.70;92.40;;;;;;4982644;28;20053;-87
2023/06/25 10:35:43;;;;;;;0.20;0.20;;;31.40;92.80;;;;;;4977433;28;20052;-82
2023/06/25 10:38:09;;;;;;;0.20;0.20;;;32.10;91.70;;;;;;5000346;28;20049;-84
2023/06/25 10:40:41;;;;;;;0.22;0.22;;;32.40;91.80;;;;;;5005808;28;20076;-91
2023/06/25 10:43:07;;;;;;;0.20;0.20;;;32.10;92.00;;;;;;5020744;28;20067;-84
2023/06/25 10:45:33;;;;;;;0.20;0.20;;;31.20;91.20;;;;;;5006446;28;20056;-86
2023/06/25 10:48:07;;;;;;;0.20;0.20;;;31.60;93.10;;;;;;4988521;28;20942;-89
2023/06/25 10:50:34;;;;;;;0.30;0.30;;;30.50;90.90;;;;;;5006502;28;20045;-84
2023/06/25 10:53:02;;;;;;;0.20;0.20;;;30.20;91.60;;;;;;5006061;28;20183;-86
2023/06/25 10:55:28;;;;;;;0.30;0.30;;;30.80;94.20;;;;;;5002132;28;20041;-84
2023/06/25 10:57:55;;;;;;;0.30;0.30;;;31.10;94.40;;;;;;5005774;28;20044;-87
2023/06/25 11:00:25;;;;;;;0.50;0.50;;;31.30;95.40;;;;;;5004111;28;20049;-86
2023/06/25 11:02:55;;;;;;;0.25;0.25;;;31.90;95.60;;;;;;5004455;28;20037;-84
2023/06/25 11:05:31;;;;;;;0.73;0.73;;;32.60;95.20;;;;;;5005498;28;20131;-84
2023/06/25 11:07:56;;;;;;;0.30;0.30;;;32.60;94.90;;;;;;5001909;28;20129;-84
2023/06/25 11:10:26;;;;;;;0.28;0.28;;;33.00;95.00;;;;;;5000748;28;20094;-88
2023/06/25 11:12:51;;;;;;;0.20;0.20;;;32.70;92.60;;;;;;5005028;28;20049;-87
2023/06/25 11:15:18;;;;;;;0.20;0.20;;;32.50;93.50;;;;;;5001916;28;21464;-89
2023/06/25 11:17:44;;;;;;;0.20;0.20;;;33.10;94.60;;;;;;5004464;28;20392;-85
2023/06/25 11:20:11;;;;;;;0.30;0.30;;;33.30;93.60;;;;;;4995668;28;20108;-90
2023/06/25 11:22:43;;;;;;;0.20;0.20;;;32.30;91.70;;;;;;4980177;28;20518;-86
2023/06/25 11:25:11;;;;;;;0.20;0.20;;;33.20;93.30;;;;;;5019511;28;20498;-82
2023/06/25 11:27:37;;;;;;;0.25;0.25;;;33.50;94.60;;;;;;5000404;28;20060;-84
2023/06/25 11:30:04;;;;;;;0.20;0.20;;;33.90;95.30;;;;;;4985770;28;20037;-87
2023/06/25 11:32:30;;;;;;;0.20;0.20;;;33.70;94.10;;;;;;4997970;28;20169;-85
2023/06/25 11:34:56;;;;;;;0.28;0.28;;;33.60;93.60;;;;;;5004352;28;20079;-85
2023/06/25 11:37:22;;;;;;;0.20;0.20;;;31.90;90.90;;;;;;5001535;28;20045;-86
2023/06/25 11:39:52;;;;;;;0.25;0.25;;;30.90;91.90;;;;;;5002681;28;20045;-88
2023/06/25 11:42:19;;;;;;;0.30;0.30;;;31.90;94.00;;;;;;4998462;28;20055;-83
2023/06/25 11:44:45;;;;;;;0.20;0.20;;;31.90;94.50;;;;;;5010164;28;20080;-88
2023/06/25 11:47:14;;;;;;;0.20;0.20;;;32.20;93.10;;;;;;4986122;28;20756;-91
2023/06/25 11:49:40;;;;;;;0.20;0.20;;;32.10;93.60;;;;;;4984842;28;20101;-85
2023/06/25 11:52:06;;;;;;;0.30;0.30;;;31.00;92.70;;;;;;4995761;28;20662;-85
2023/06/25 11:54:32;;;;;;;0.40;0.20;;;32.40;94.60;;;;;;4995755;28;20053;-83
2023/06/25 11:56:58;;;;;;;0.20;0.20;;;32.90;93.80;;;;;;4976186;28;20148;-85
2023/06/25 11:59:23;;;;;;;0.20;0.20;;;33.20;93.40;;;;;;4987064;28;20046;-84
2023/06/25 12:01:49;;;;;;;0.20;0.20;;;33.40;93.70;;;;;;4999879;28;20076;-84
2023/06/25 12:04:15;;;;;;;0.20;0.20;;;33.80;93.30;;;;;;4995303;28;20053;-84
2023/06/25 12:06:41;;;;;;;0.30;0.30;;;33.80;93.90;;;;;;5000114;28;20052;-84
2023/06/25 12:09:06;;;;;;;0.20;0.20;;;33.80;92.60;;;;;;5002894;28;20239;-86
2023/06/25 12:11:33;;;;;;;0.20;0.20;;;34.00;92.80;;;;;;5003780;28;20072;-87
2023/06/25 12:13:58;;;;;;;0.20;0.20;;;34.20;92.90;;;;;;5003018;28;20798;-85
2023/06/25 12:16:24;;;;;;;0.20;0.20;;;34.20;92.70;;;;;;5000083;28;20133;-89
2023/06/25 12:18:50;;;;;;;0.20;0.20;;;34.20;92.10;;;;;;4995362;28;20045;-84
2023/06/25 12:21:15;;;;;;;0.22;0.22;;;34.00;93.80;;;;;;4992826;28;20045;-87
2023/06/25 12:23:41;;;;;;;0.20;0.20;;;34.30;92.90;;;;;;5002000;28;20396;-86
2023/06/25 12:26:07;;;;;;;0.20;0.20;;;34.20;92.60;;;;;;5000339;28;20050;-87
2023/06/25 12:28:33;;;;;;;0.20;0.20;;;34.10;92.00;;;;;;4986197;28;20129;-85
2023/06/25 12:30:58;;;;;;;0.20;0.20;;;34.40;92.50;;;;;;4992574;28;20077;-86
2023/06/25 12:33:24;;;;;;;0.30;0.30;;;34.50;92.30;;;;;;4985172;28;20045;-86
2023/06/25 12:35:50;;;;;;;0.30;0.30;;;34.20;92.40;;;;;;5004198;28;20048;-88
2023/06/25 12:38:15;;;;;;;0.20;0.20;;;32.60;87.60;;;;;;4989410;28;20087;-86
2023/06/25 12:40:41;;;;;;;0.20;0.20;;;33.60;92.20;;;;;;5006732;28;20088;-88
2023/06/25 12:43:07;;;;;;;0.20;0.20;;;32.60;91.20;;;;;;4979757;28;20042;-85
2023/06/25 12:45:32;;;;;;;0.30;0.30;;;33.40;93.30;;;;;;5004853;28;20839;-85